Time;durP1;ratioP1;P1;durP2;ratioP2;P2;SDS_P1;SDS_P2;PMS_P1;PMS_P2;Temp;Humidity;BMP_temperature;BMP_pressure;BME280_temperature;BME280_humidity;BME280_pressure;Samples;Min_cycle;Max_cycle;Signal;HPM_P1;HPM_P2
2022/11/26 00:00:25;;;;;;;7.82;2.55;;;;;;;4.47;100.00;96711.13;1038511;28;20338;-69
2022/11/26 00:00:55;;;;;;;5.97;2.83;;;;;;;4.45;100.00;96710.50;1038664;28;20045;-69
2022/11/26 00:01:26;;;;;;;10.93;3.05;;;;;;;4.36;100.00;96698.72;1035022;28;20064;-69
2022/11/26 00:01:58;;;;;;;8.93;3.03;;;;;;;4.44;100.00;96703.72;1030339;28;20022;-69
2022/11/26 00:02:29;;;;;;;7.88;3.10;;;;;;;4.41;100.00;96706.72;1024954;28;20273;-69
2022/11/26 00:03:00;;;;;;;7.88;3.70;;;;;;;4.42;100.00;96716.09;1022688;29;20286;-69
2022/11/26 00:03:30;;;;;;;7.53;2.83;;;;;;;4.41;100.00;96709.31;1018853;29;20023;-68
2022/11/26 00:04:02;;;;;;;5.82;2.85;;;;;;;4.40;100.00;96707.72;1020588;28;20024;-69
2022/11/26 00:04:32;;;;;;;4.43;2.97;;;;;;;4.42;100.00;96704.91;1026824;28;20050;-68
2022/11/26 00:05:03;;;;;;;11.38;2.67;;;;;;;4.43;100.00;96701.34;1030566;28;20834;-68
2022/11/26 00:05:33;;;;;;;7.32;2.65;;;;;;;4.42;100.00;96707.50;1035472;28;20112;-68
2022/11/26 00:06:04;;;;;;;6.20;2.88;;;;;;;4.43;100.00;96702.13;1038551;28;20029;-69
2022/11/26 00:06:39;;;;;;;6.90;2.65;;;;;;;4.44;100.00;96702.91;1034504;28;20519;-68
2022/11/26 00:07:10;;;;;;;10.38;2.92;;;;;;;4.41;100.00;96698.91;1034590;28;20084;-69
2022/11/26 00:07:42;;;;;;;6.68;2.40;;;;;;;4.44;100.00;96706.31;1027170;28;20264;-69
2022/11/26 00:08:21;;;;;;;7.25;2.80;;;;;;;4.45;100.00;96707.91;1030441;28;20262;-69
2022/11/26 00:08:51;;;;;;;9.27;2.95;;;;;;;4.39;100.00;96700.09;1032136;28;20352;-69
2022/11/26 00:09:23;;;;;;;8.70;3.03;;;;;;;4.45;100.00;96712.31;1029045;28;20612;-69
2022/11/26 00:09:54;;;;;;;6.68;2.80;;;;;;;4.42;100.00;96712.69;1026499;28;20026;-69
2022/11/26 00:10:27;;;;;;;7.03;2.60;;;;;;;4.41;100.00;96704.13;1026279;28;20269;-69
2022/11/26 00:10:57;;;;;;;8.55;2.80;;;;;;;4.36;100.00;96700.50;1030081;28;20018;-69
2022/11/26 00:11:28;;;;;;;7.72;3.15;;;;;;;4.39;100.00;96706.13;1023343;29;20291;-69
2022/11/26 00:11:58;;;;;;;7.78;2.75;;;;;;;4.39;100.00;96700.94;1027240;28;20030;-69
2022/11/26 00:12:32;;;;;;;7.40;2.83;;;;;;;4.37;100.00;96702.91;1028074;28;20113;-69
2022/11/26 00:13:05;;;;;;;7.55;3.22;;;;;;;4.40;100.00;96705.13;1031325;28;20079;-68
2022/11/26 00:13:35;;;;;;;5.10;2.92;;;;;;;4.44;100.00;96703.72;1023547;29;20724;-69
2022/11/26 00:14:24;;;;;;;7.78;2.80;;;;;;;4.45;100.00;96710.50;1020013;29;20263;-69
2022/11/26 00:14:54;;;;;;;9.63;3.33;;;;;;;4.45;100.00;96709.72;1026325;28;20022;-69
2022/11/26 00:15:29;;;;;;;6.15;2.55;;;;;;;4.41;100.00;96709.31;1032316;28;20265;-69
2022/11/26 00:15:59;;;;;;;8.18;2.88;;;;;;;4.42;100.00;96716.09;1033560;28;20574;-68
2022/11/26 00:16:30;;;;;;;10.27;2.58;;;;;;;4.44;100.00;96718.50;1035517;28;20253;-69
2022/11/26 00:17:00;;;;;;;7.00;2.78;;;;;;;4.43;100.00;96717.72;1028037;28;20647;-69
2022/11/26 00:17:31;;;;;;;7.05;2.28;;;;;;;4.45;100.00;96712.31;1024167;28;20086;-68
2022/11/26 00:18:01;;;;;;;7.85;2.88;;;;;;;4.46;100.00;96721.69;1027377;28;20508;-69
2022/11/26 00:18:32;;;;;;;6.38;2.80;;;;;;;4.41;100.00;96708.50;1027358;28;20405;-69
2022/11/26 00:19:02;;;;;;;7.43;3.20;;;;;;;4.45;100.00;96723.50;1031452;28;20022;-68
2022/11/26 00:19:32;;;;;;;7.63;2.45;;;;;;;4.41;100.00;96708.50;1039405;28;20063;-69
2022/11/26 00:20:03;;;;;;;15.18;3.47;;;;;;;4.44;100.00;96714.13;1035414;28;20025;-68
2022/11/26 00:20:34;;;;;;;5.55;2.55;;;;;;;4.39;100.00;96706.13;1035689;28;20037;-68
2022/11/26 00:21:05;;;;;;;7.43;2.58;;;;;;;4.45;100.00;96713.09;1033181;28;20364;-69
2022/11/26 00:21:37;;;;;;;9.63;2.72;;;;;;;4.42;100.00;96717.91;1027434;28;20022;-68
2022/11/26 00:22:21;;;;;;;8.52;3.03;;;;;;;4.44;100.00;96719.31;1023279;29;20022;-67
2022/11/26 00:22:52;;;;;;;8.27;3.00;;;;;;;4.44;100.00;96716.72;1025531;28;20258;-68
2022/11/26 00:23:24;;;;;;;10.70;2.88;;;;;;;4.40;100.00;96715.50;1027780;28;20792;-68
2022/11/26 00:23:55;;;;;;;9.43;3.15;;;;;;;4.46;100.00;96717.31;1027603;28;20274;-68
2022/11/26 00:24:26;;;;;;;6.10;3.00;;;;;;;4.47;100.00;96723.31;1030224;28;20257;-68
2022/11/26 00:24:57;;;;;;;10.02;3.08;;;;;;;4.45;100.00;96725.31;1031210;28;20081;-68
2022/11/26 00:25:40;;;;;;;6.30;2.97;;;;;;;4.44;100.00;96723.72;1027099;28;20748;-69
2022/11/26 00:26:13;;;;;;;7.15;2.72;;;;;;;4.47;100.00;96726.72;1025093;28;20015;-68
2022/11/26 00:26:44;;;;;;;7.97;3.08;;;;;;;4.45;100.00;96726.09;1024926;28;20266;-70
2022/11/26 00:27:14;;;;;;;10.25;3.28;;;;;;;4.45;100.00;96731.28;1031450;28;20297;-69
2022/11/26 00:27:45;;;;;;;10.40;3.60;;;;;;;4.43;100.00;96719.53;1033078;28;20029;-68
2022/11/26 00:28:27;;;;;;;8.02;2.88;;;;;;;4.45;100.00;96728.69;1035338;28;20010;-69
2022/11/26 00:29:01;;;;;;;9.50;3.10;;;;;;;4.39;100.00;96726.91;1039400;28;20028;-70
2022/11/26 00:29:31;;;;;;;7.00;3.35;;;;;;;4.44;100.00;96729.69;1032739;28;20265;-69
2022/11/26 00:30:08;;;;;;;9.88;3.00;;;;;;;4.43;100.00;96722.91;1036013;28;20265;-69
2022/11/26 00:30:38;;;;;;;10.13;3.35;;;;;;;4.38;100.00;96720.09;1035050;28;20029;-69
2022/11/26 00:31:13;;;;;;;8.40;3.30;;;;;;;4.43;100.00;96733.31;1034689;28;20698;-70
2022/11/26 00:31:44;;;;;;;8.07;3.00;;;;;;;4.41;100.00;96735.28;1027036;28;20035;-69
2022/11/26 00:32:19;;;;;;;10.27;3.30;;;;;;;4.31;100.00;96716.69;1028357;28;20279;-69
2022/11/26 00:32:50;;;;;;;6.53;3.13;;;;;;;4.43;100.00;96737.72;1036204;28;20032;-69
2022/11/26 00:33:21;;;;;;;9.80;2.72;;;;;;;4.43;100.00;96730.72;1039798;28;20250;-69
2022/11/26 00:33:52;;;;;;;8.68;3.42;;;;;;;4.38;100.00;96730.50;1043308;28;20556;-69
2022/11/26 00:34:22;;;;;;;7.57;3.58;;;;;;;4.41;100.00;96740.50;1035014;28;20323;-68
2022/11/26 00:34:52;;;;;;;8.40;2.78;;;;;;;4.37;100.00;96728.09;1035159;28;20041;-69
2022/11/26 00:35:23;;;;;;;6.97;3.13;;;;;;;4.42;100.00;96739.47;1022857;29;20015;-68
2022/11/26 00:36:00;;;;;;;7.15;3.10;;;;;;;4.39;100.00;96733.88;1027072;28;20117;-69
2022/11/26 00:36:31;;;;;;;12.02;3.45;;;;;;;4.36;100.00;96737.69;1031189;28;20010;-68
2022/11/26 00:37:01;;;;;;;8.80;3.00;;;;;;;4.38;100.00;96735.69;1030429;28;20305;-68
2022/11/26 00:37:35;;;;;;;7.97;2.78;;;;;;;4.37;100.00;96735.91;1031108;28;20011;-69
2022/11/26 00:38:09;;;;;;;6.03;3.40;;;;;;;4.34;100.00;96731.09;1023160;29;20147;-69
2022/11/26 00:38:40;;;;;;;6.47;3.00;;;;;;;4.39;100.00;96742.50;1031049;28;20261;-69
2022/11/26 00:39:13;;;;;;;8.90;3.50;;;;;;;4.38;100.00;96740.09;1034948;28;20260;-69
2022/11/26 00:39:43;;;;;;;7.78;3.13;;;;;;;4.37;100.00;96744.50;1026882;28;20015;-68
2022/11/26 00:40:27;;;;;;;9.10;2.80;;;;;;;4.38;100.00;96746.09;1026928;28;20870;-69
2022/11/26 00:40:57;;;;;;;11.93;3.20;;;;;;;4.36;100.00;96748.09;1027382;28;20020;-69
2022/11/26 00:41:30;;;;;;;6.85;2.78;;;;;;;4.35;100.00;96740.47;1030712;28;20267;-69
2022/11/26 00:42:00;;;;;;;5.53;2.88;;;;;;;4.38;100.00;96751.28;1029445;28;20810;-70
2022/11/26 00:42:31;;;;;;;6.28;2.92;;;;;;;4.34;100.00;96744.09;1030289;28;20353;-69
2022/11/26 00:43:01;;;;;;;7.88;3.13;;;;;;;4.38;100.00;96746.09;1023029;29;20034;-68
2022/11/26 00:43:32;;;;;;;8.05;2.60;;;;;;;4.39;100.00;96752.91;1027972;28;20023;-69
2022/11/26 00:44:02;;;;;;;6.05;2.78;;;;;;;4.40;100.00;96749.28;1022120;28;20078;-69
2022/11/26 00:44:33;;;;;;;8.23;3.25;;;;;;;4.40;100.00;96759.69;1019482;28;20019;-69
2022/11/26 00:45:12;;;;;;;6.55;2.60;;;;;;;4.39;100.00;96752.91;1027210;28;20129;-69
2022/11/26 00:45:43;;;;;;;9.68;3.63;;;;;;;4.37;100.00;96747.09;1022784;29;20011;-69
2022/11/26 00:46:15;;;;;;;4.75;2.90;;;;;;;4.40;100.00;96758.88;1026964;28;20282;-69
2022/11/26 00:46:45;;;;;;;9.02;3.67;;;;;;;4.38;100.00;96753.88;1027028;28;20277;-69
2022/11/26 00:47:16;;;;;;;10.32;4.35;;;;;;;4.38;100.00;96750.47;1026977;28;20392;-69
2022/11/26 00:47:46;;;;;;;9.15;3.20;;;;;;;4.25;100.00;96740.88;1023340;28;20034;-68
2022/11/26 00:48:18;;;;;;;8.20;3.25;;;;;;;4.25;100.00;96738.25;1019161;29;20020;-69
2022/11/26 00:48:48;;;;;;;7.40;2.78;;;;;;;4.33;100.00;96758.88;1021280;28;20024;-68
2022/11/26 00:49:19;;;;;;;5.38;3.00;;;;;;;4.35;100.00;96751.66;1026839;28;20313;-69
2022/11/26 00:49:50;;;;;;;15.48;3.38;;;;;;;4.35;100.00;96761.25;1031070;28;20455;-69
2022/11/26 00:50:21;;;;;;;9.98;3.72;;;;;;;4.33;100.00;96761.47;1035353;28;20256;-70
2022/11/26 00:50:52;;;;;;;8.60;2.60;;;;;;;4.31;100.00;96752.28;1039227;28;20025;-69
2022/11/26 00:51:24;;;;;;;7.93;2.92;;;;;;;4.23;100.00;96742.88;1031165;28;20261;-69
2022/11/26 00:51:55;;;;;;;9.23;3.33;;;;;;;4.33;100.00;96756.28;1026932;28;20101;-68
2022/11/26 00:52:33;;;;;;;6.60;2.97;;;;;;;4.32;100.00;96756.47;1026086;28;20814;-68
2022/11/26 00:53:03;;;;;;;7.97;3.35;;;;;;;4.31;100.00;96753.06;1031388;28;20443;-67
2022/11/26 00:53:34;;;;;;;10.43;3.17;;;;;;;4.32;100.00;96746.06;1034765;28;20253;-69
2022/11/26 00:54:04;;;;;;;10.85;3.13;;;;;;;4.36;100.00;96752.47;1031303;28;20029;-69
2022/11/26 00:54:35;;;;;;;6.18;3.00;;;;;;;4.34;100.00;96752.69;1027253;28;20015;-69
2022/11/26 00:55:14;;;;;;;9.35;3.17;;;;;;;4.36;100.00;96761.09;1023345;28;20028;-69
2022/11/26 00:55:48;;;;;;;7.72;3.55;;;;;;;4.31;100.00;96755.66;1032724;28;20025;-68
2022/11/26 00:56:19;;;;;;;6.57;2.85;;;;;;;4.29;100.00;96754.25;1028944;28;20849;-69
2022/11/26 00:56:50;;;;;;;8.95;2.75;;;;;;;4.31;100.00;96755.66;1027561;28;20265;-69
2022/11/26 00:57:20;;;;;;;9.85;3.40;;;;;;;4.29;100.00;96757.66;1025076;28;20290;-69
2022/11/26 00:57:51;;;;;;;7.45;3.60;;;;;;;4.28;100.00;96752.66;1031689;28;20015;-68
2022/11/26 00:58:28;;;;;;;5.53;2.65;;;;;;;4.26;100.00;96758.06;1035260;28;20018;-69
2022/11/26 00:58:58;;;;;;;10.85;3.40;;;;;;;4.29;100.00;96757.66;1035875;28;20025;-69
2022/11/26 00:59:29;;;;;;;8.05;2.97;;;;;;;4.30;100.00;96754.06;1039279;28;20275;-69
2022/11/26 00:59:59;;;;;;;3.97;2.83;;;;;;;4.29;100.00;96762.84;1039225;28;20033;-69
2022/11/26 01:00:31;;;;;;;10.27;3.15;;;;;;;4.27;100.00;96751.06;1034948;28;20017;-69
2022/11/26 01:01:01;;;;;;;9.52;3.40;;;;;;;4.27;100.00;96757.06;1031175;28;20464;-69
2022/11/26 01:01:32;;;;;;;8.02;3.22;;;;;;;4.32;100.00;96757.25;1031067;28;20262;-69
2022/11/26 01:02:02;;;;;;;9.02;3.42;;;;;;;4.25;100.00;96749.44;1031120;28;20516;-69
2022/11/26 01:02:33;;;;;;;7.68;2.95;;;;;;;4.31;100.00;96762.66;1029945;28;20088;-69
2022/11/26 01:03:03;;;;;;;9.05;3.13;;;;;;;4.29;100.00;96755.06;1039314;28;20564;-69
2022/11/26 01:03:34;;;;;;;9.35;3.42;;;;;;;4.30;100.00;96759.28;1035245;28;20018;-68
2022/11/26 01:04:04;;;;;;;8.60;2.92;;;;;;;4.30;100.00;96761.88;1039288;28;20455;-69
2022/11/26 01:04:35;;;;;;;7.68;3.15;;;;;;;4.31;100.00;96760.88;1034948;28;20136;-69
2022/11/26 01:05:07;;;;;;;11.10;3.72;;;;;;;4.29;100.00;96757.66;1026981;28;20039;-69
2022/11/26 01:05:37;;;;;;;12.07;3.30;;;;;;;4.28;100.00;96750.06;1025580;28;20122;-69
2022/11/26 01:06:15;;;;;;;5.93;3.00;;;;;;;4.31;100.00;96754.88;1027146;28;20341;-69
2022/11/26 01:06:45;;;;;;;5.28;2.97;;;;;;;4.30;100.00;96759.28;1031955;28;20032;-69
2022/11/26 01:07:16;;;;;;;6.88;3.55;;;;;;;4.32;100.00;96759.06;1032312;28;20442;-69
2022/11/26 01:07:46;;;;;;;6.82;2.95;;;;;;;4.30;100.00;96769.66;1039092;28;20071;-69
2022/11/26 01:08:37;;;;;;;10.25;3.00;;;;;;;4.29;100.00;96768.03;1035215;28;20018;-68
2022/11/26 01:09:15;;;;;;;8.05;3.53;;;;;;;4.26;100.00;96768.47;1033380;28;20104;-68
2022/11/26 01:09:46;;;;;;;6.82;2.78;;;;;;;4.24;100.00;96762.66;1026734;28;20042;-69
2022/11/26 01:10:21;;;;;;;8.15;3.08;;;;;;;4.25;100.00;96766.84;1031024;28;20826;-69
2022/11/26 01:10:51;;;;;;;6.82;3.35;;;;;;;4.26;100.00;96768.47;1026713;28;20381;-71
2022/11/26 01:11:22;;;;;;;10.25;3.40;;;;;;;4.29;100.00;96778.44;1027719;28;20688;-69
2022/11/26 01:11:52;;;;;;;8.70;2.95;;;;;;;4.29;100.00;96773.25;1024596;28;20110;-70
2022/11/26 01:12:23;;;;;;;7.28;3.35;;;;;;;4.22;100.00;96762.84;1023039;28;20071;-70
2022/11/26 01:12:53;;;;;;;8.25;3.22;;;;;;;4.22;100.00;96768.03;1026967;28;20037;-71
2022/11/26 01:13:24;;;;;;;10.50;3.40;;;;;;;4.23;100.00;96758.47;1023097;28;20022;-70
2022/11/26 01:13:55;;;;;;;7.20;3.10;;;;;;;4.23;100.00;96769.66;1031275;28;20022;-71
2022/11/26 01:14:25;;;;;;;7.60;3.50;;;;;;;4.28;100.00;96773.44;1033680;28;20022;-71
2022/11/26 01:14:55;;;;;;;9.68;3.50;;;;;;;4.29;100.00;96767.25;1034966;28;20018;-70
2022/11/26 01:15:26;;;;;;;9.02;3.63;;;;;;;4.30;100.00;96777.47;1035247;28;20018;-70
2022/11/26 01:15:58;;;;;;;9.10;3.50;;;;;;;4.26;100.00;96768.47;1034936;28;20470;-71
2022/11/26 01:16:29;;;;;;;8.23;3.75;;;;;;;4.29;100.00;96768.03;1030960;28;20267;-70
2022/11/26 01:17:00;;;;;;;10.80;4.93;;;;;;;4.30;100.00;96772.25;1022953;29;20357;-71
2022/11/26 01:17:30;;;;;;;7.03;3.05;;;;;;;4.31;100.00;96771.25;1022595;28;20247;-70
2022/11/26 01:18:01;;;;;;;9.38;3.78;;;;;;;4.31;100.00;96773.06;1019097;29;20028;-69
2022/11/26 01:18:33;;;;;;;5.35;3.15;;;;;;;4.33;100.00;96777.06;1023285;28;20874;-70
2022/11/26 01:19:04;;;;;;;9.38;3.15;;;;;;;4.34;100.00;96776.06;1023102;28;20026;-70
2022/11/26 01:19:35;;;;;;;7.63;3.83;;;;;;;4.34;100.00;96764.88;1031294;28;20981;-70
2022/11/26 01:20:26;;;;;;;10.18;3.50;;;;;;;4.35;100.00;96775.06;1035010;28;20272;-70
2022/11/26 01:20:56;;;;;;;9.10;4.30;;;;;;;4.34;100.00;96776.06;1039759;28;20040;-70
2022/11/26 01:21:28;;;;;;;7.65;3.30;;;;;;;4.34;100.00;96770.06;1038773;28;20753;-70
2022/11/26 01:21:58;;;;;;;6.90;3.70;;;;;;;4.34;100.00;96776.06;1038988;28;20119;-70
2022/11/26 01:22:29;;;;;;;7.60;3.70;;;;;;;4.36;100.00;96766.28;1034827;28;20331;-70
2022/11/26 01:22:59;;;;;;;14.43;5.13;;;;;;;4.35;100.00;96774.25;1034061;28;20037;-70
2022/11/26 01:23:29;;;;;;;7.78;3.45;;;;;;;4.35;100.00;96769.84;1034131;28;20584;-70
2022/11/26 01:24:00;;;;;;;8.10;3.30;;;;;;;4.34;100.00;96770.06;1039580;28;20032;-70
2022/11/26 01:24:30;;;;;;;10.65;4.90;;;;;;;4.33;100.00;96771.88;1036899;28;20025;-70
2022/11/26 01:25:01;;;;;;;9.30;3.92;;;;;;;4.33;100.00;96774.47;1035046;28;20025;-70
2022/11/26 01:25:31;;;;;;;8.23;4.40;;;;;;;4.36;100.00;96781.88;1030965;28;20084;-70
2022/11/26 01:26:02;;;;;;;8.57;3.67;;;;;;;4.34;100.00;96770.06;1035969;28;20018;-70
2022/11/26 01:26:35;;;;;;;8.52;3.35;;;;;;;4.35;100.00;96767.25;1035072;28;20504;-70
2022/11/26 01:27:08;;;;;;;10.05;3.60;;;;;;;4.37;100.00;96780.88;1035078;28;20010;-70
2022/11/26 01:27:39;;;;;;;13.52;3.90;;;;;;;4.39;100.00;96773.69;1030272;28;20301;-71
2022/11/26 01:28:14;;;;;;;11.73;3.78;;;;;;;4.34;100.00;96765.66;1030155;28;20261;-70
2022/11/26 01:28:45;;;;;;;8.68;3.30;;;;;;;4.44;100.00;96775.69;1031528;28;20018;-70
2022/11/26 01:29:16;;;;;;;8.48;3.50;;;;;;;4.48;100.00;96779.47;1026845;28;20254;-69
2022/11/26 01:29:47;;;;;;;9.63;4.07;;;;;;;4.46;100.00;96774.50;1023504;28;20023;-70
2022/11/26 01:30:25;;;;;;;9.35;3.65;;;;;;;4.38;100.00;96761.66;1027312;28;20270;-69
2022/11/26 01:30:56;;;;;;;12.20;3.65;;;;;;;4.39;100.00;96768.50;1026734;28;20686;-69
2022/11/26 01:31:27;;;;;;;7.95;3.17;;;;;;;4.46;100.00;96776.25;1026418;28;20460;-70
2022/11/26 01:31:58;;;;;;;8.50;3.58;;;;;;;4.48;100.00;96779.47;1022521;29;20541;-70
2022/11/26 01:32:28;;;;;;;10.23;3.53;;;;;;;4.42;100.00;96767.28;1025733;28;20274;-70
2022/11/26 01:32:59;;;;;;;9.07;3.38;;;;;;;4.47;100.00;96778.69;1028768;28;20031;-69
2022/11/26 01:33:30;;;;;;;11.45;3.72;;;;;;;4.47;100.00;96776.09;1033410;28;20173;-70
2022/11/26 01:34:00;;;;;;;7.05;3.42;;;;;;;4.30;100.00;96754.06;1031094;28;20277;-70
2022/11/26 01:34:31;;;;;;;7.80;3.35;;;;;;;4.38;100.00;96761.66;1030952;28;20037;-70
2022/11/26 01:35:01;;;;;;;7.85;3.40;;;;;;;4.46;100.00;96769.28;1034895;28;20484;-69
2022/11/26 01:35:32;;;;;;;12.00;4.05;;;;;;;4.44;100.00;96776.47;1034865;28;20048;-69
2022/11/26 01:36:02;;;;;;;10.95;3.40;;;;;;;4.47;100.00;96770.88;1026560;28;20023;-69
2022/11/26 01:36:37;;;;;;;8.70;3.65;;;;;;;4.43;100.00;96774.09;1030931;28;20023;-70
2022/11/26 01:37:12;;;;;;;9.10;3.42;;;;;;;4.29;100.00;96749.84;1034907;28;20121;-69
2022/11/26 01:37:43;;;;;;;9.57;3.47;;;;;;;4.46;100.00;96777.09;1033336;28;20277;-70
2022/11/26 01:38:13;;;;;;;8.60;3.60;;;;;;;4.42;100.00;96773.25;1031113;28;20266;-69
2022/11/26 01:38:44;;;;;;;7.78;3.17;;;;;;;4.46;100.00;96782.28;1027320;28;20031;-70
2022/11/26 01:39:16;;;;;;;12.13;4.35;;;;;;;4.43;100.00;96774.88;1030852;28;20069;-71
2022/11/26 01:39:47;;;;;;;11.35;3.88;;;;;;;4.45;100.00;96783.25;1031114;28;20029;-70
2022/11/26 01:40:46;;;;;;;8.93;3.88;;;;;;;4.41;100.00;96776.06;1035073;28;20280;-70
2022/11/26 01:41:16;;;;;;;7.82;3.40;;;;;;;4.44;100.00;96786.06;1031239;28;20030;-69
2022/11/26 01:42:15;;;;;;;12.15;4.20;;;;;;;4.42;100.00;96783.66;1034923;28;20726;-69
2022/11/26 01:42:47;;;;;;;9.85;4.18;;;;;;;4.43;100.00;96787.88;1039219;28;20025;-70
2022/11/26 01:43:26;;;;;;;10.52;4.30;;;;;;;4.42;100.00;96783.66;1035298;28;20308;-70
2022/11/26 01:43:56;;;;;;;8.52;3.65;;;;;;;4.41;100.00;96779.47;1029764;28;20277;-69
2022/11/26 01:44:29;;;;;;;11.18;4.25;;;;;;;4.39;100.00;96785.84;1023050;29;20267;-70
2022/11/26 01:44:59;;;;;;;9.73;3.83;;;;;;;4.43;100.00;96782.69;1023632;28;20031;-70
2022/11/26 01:45:30;;;;;;;9.93;3.78;;;;;;;4.44;100.00;96792.06;1023107;29;20267;-69
2022/11/26 01:46:00;;;;;;;13.02;4.18;;;;;;;4.42;100.00;96794.06;1027038;28;20043;-69
2022/11/26 01:46:30;;;;;;;11.40;4.50;;;;;;;4.40;100.00;96793.47;1027667;28;20746;-69
2022/11/26 01:47:01;;;;;;;5.93;3.53;;;;;;;4.34;100.00;96788.25;1029116;28;20083;-69
2022/11/26 01:47:32;;;;;;;9.00;3.97;;;;;;;4.34;100.00;96781.25;1023473;28;20015;-70
2022/11/26 01:48:30;;;;;;;7.90;3.65;;;;;;;4.40;100.00;96785.66;1023521;29;20054;-69
2022/11/26 01:49:20;;;;;;;11.82;4.07;;;;;;;4.38;100.00;96790.25;1027176;28;20086;-72
2022/11/26 01:50:27;;;;;;;7.93;3.70;;;;;;;4.39;100.00;96793.66;1033489;28;20273;-70
2022/11/26 01:51:05;;;;;;;6.60;3.40;;;;;;;4.39;100.00;96799.66;1039353;28;20044;-69
2022/11/26 01:51:35;;;;;;;15.23;5.20;;;;;;;4.36;100.00;96789.66;1041469;28;20268;-69
2022/11/26 01:52:13;;;;;;;9.80;3.53;;;;;;;4.34;100.00;96790.84;1032754;28;20780;-69
2022/11/26 01:52:43;;;;;;;11.48;4.13;;;;;;;4.33;100.00;96790.06;1030998;28;20042;-70
2022/11/26 01:53:37;;;;;;;13.68;4.47;;;;;;;4.29;100.00;96778.44;1031499;28;20270;-70
2022/11/26 01:54:07;;;;;;;10.23;3.80;;;;;;;4.34;100.00;96796.84;1027009;28;20023;-70
2022/11/26 01:54:39;;;;;;;8.10;3.70;;;;;;;4.30;100.00;96785.25;1031356;28;20328;-70
2022/11/26 01:55:13;;;;;;;11.88;3.88;;;;;;;4.34;100.00;96796.06;1023296;29;20027;-70
2022/11/26 01:55:46;;;;;;;10.15;3.78;;;;;;;4.33;100.00;96794.47;1026671;28;21033;-70
2022/11/26 01:56:34;;;;;;;9.80;4.15;;;;;;;4.35;100.00;96795.03;1023376;29;20353;-69
2022/11/26 01:57:13;;;;;;;13.27;4.55;;;;;;;4.30;100.00;96787.84;1025991;28;20703;-70
2022/11/26 01:57:44;;;;;;;11.32;4.15;;;;;;;4.34;100.00;96796.84;1022946;28;20267;-70
2022/11/26 01:58:17;;;;;;;16.02;4.22;;;;;;;4.35;100.00;96800.25;1023342;29;20942;-70
2022/11/26 01:58:53;;;;;;;12.50;4.57;;;;;;;4.32;100.00;96790.25;1023743;28;20505;-69
2022/11/26 01:59:33;;;;;;;11.73;3.97;;;;;;;4.34;100.00;96796.06;1031187;28;20288;-70
2022/11/26 02:00:05;;;;;;;7.85;3.50;;;;;;;4.32;100.00;96793.63;1031442;28;20265;-70
2022/11/26 02:00:35;;;;;;;9.73;4.78;;;;;;;4.33;100.00;96794.47;1032753;28;20750;-69
2022/11/26 02:01:06;;;;;;;12.75;3.85;;;;;;;4.33;100.00;96792.66;1036737;28;20281;-69
2022/11/26 02:01:36;;;;;;;14.98;4.40;;;;;;;4.32;100.00;96798.81;1035678;28;20479;-70
2022/11/26 02:02:07;;;;;;;14.82;4.47;;;;;;;4.30;100.00;96792.25;1038873;28;20029;-69
2022/11/26 02:02:37;;;;;;;9.45;3.60;;;;;;;4.27;100.00;96785.63;1030518;28;20126;-70
2022/11/26 02:03:07;;;;;;;11.45;4.13;;;;;;;4.32;100.00;96803.22;1030982;28;20041;-70
2022/11/26 02:04:01;;;;;;;8.35;3.80;;;;;;;4.33;100.00;96802.25;1023237;28;20027;-69
2022/11/26 02:04:39;;;;;;;15.25;4.55;;;;;;;4.31;100.00;96802.44;1026532;28;20045;-70
2022/11/26 02:05:12;;;;;;;9.32;3.88;;;;;;;4.31;100.00;96799.03;1031176;28;20272;-70
2022/11/26 02:05:49;;;;;;;9.60;4.15;;;;;;;4.32;100.00;96804.03;1039294;28;20252;-70
2022/11/26 02:06:22;;;;;;;8.13;4.13;;;;;;;4.31;100.00;96801.63;1033509;28;20265;-70
2022/11/26 02:06:53;;;;;;;10.55;4.20;;;;;;;4.25;100.00;96792.81;1027360;28;20301;-69
2022/11/26 02:07:23;;;;;;;8.20;3.63;;;;;;;4.28;100.00;96805.41;1024629;28;20262;-70
2022/11/26 02:07:54;;;;;;;9.68;4.03;;;;;;;4.32;100.00;96803.22;1027126;28;20294;-70
2022/11/26 02:08:25;;;;;;;9.45;3.42;;;;;;;4.30;100.00;96810.44;1027470;28;20027;-69
2022/11/26 02:08:57;;;;;;;14.43;4.32;;;;;;;4.31;100.00;96806.84;1027095;28;20058;-70
2022/11/26 02:09:27;;;;;;;12.60;3.95;;;;;;;4.29;100.00;96804.41;1027388;28;20282;-69
2022/11/26 02:09:58;;;;;;;13.57;4.30;;;;;;;4.29;100.00;96804.41;1023368;29;20282;-69
2022/11/26 02:10:28;;;;;;;10.10;4.20;;;;;;;4.22;100.00;96796.59;1023549;28;20023;-69
2022/11/26 02:11:13;;;;;;;7.30;3.65;;;;;;;4.30;100.00;96807.84;1027241;28;20453;-69
2022/11/26 02:11:44;;;;;;;10.38;3.97;;;;;;;4.30;100.00;96805.25;1023096;28;20030;-70
2022/11/26 02:12:14;;;;;;;14.18;4.20;;;;;;;4.30;100.00;96803.44;1022699;29;20386;-70
2022/11/26 02:12:45;;;;;;;10.10;3.78;;;;;;;4.33;100.00;96804.84;1026537;28;20026;-69
2022/11/26 02:13:15;;;;;;;12.60;4.07;;;;;;;4.33;100.00;96807.44;1027092;28;20023;-70
2022/11/26 02:13:46;;;;;;;7.25;3.60;;;;;;;4.33;100.00;96810.03;1031044;28;20029;-69
2022/11/26 02:14:19;;;;;;;8.63;3.55;;;;;;;4.32;100.00;96804.03;1027141;28;20062;-69
2022/11/26 02:14:49;;;;;;;10.93;4.40;;;;;;;4.35;100.00;96814.03;1023605;28;20302;-70
2022/11/26 02:15:20;;;;;;;10.70;3.50;;;;;;;4.35;100.00;96798.44;1023667;28;20808;-70
2022/11/26 02:15:59;;;;;;;8.60;3.75;;;;;;;4.35;100.00;96811.44;1028178;28;20413;-69
2022/11/26 02:16:33;;;;;;;11.43;3.38;;;;;;;4.36;100.00;96807.84;1028629;28;20029;-70
2022/11/26 02:17:21;;;;;;;8.10;3.50;;;;;;;4.34;100.00;96806.44;1025510;28;20663;-69
2022/11/26 02:17:57;;;;;;;11.00;4.28;;;;;;;4.34;100.00;96807.25;1034796;28;20340;-70
2022/11/26 02:18:30;;;;;;;8.88;4.15;;;;;;;4.33;100.00;96805.66;1030572;28;20281;-70
2022/11/26 02:19:42;;;;;;;14.52;4.28;;;;;;;4.35;100.00;96808.03;1026595;28;20278;-70
2022/11/26 02:20:25;;;;;;;6.03;3.53;;;;;;;4.31;100.00;96797.25;1029780;28;20266;-70
2022/11/26 02:21:02;;;;;;;8.93;3.60;;;;;;;4.33;100.00;96804.84;1034241;28;20273;-69
2022/11/26 02:21:33;;;;;;;10.02;4.30;;;;;;;4.27;100.00;96795.25;1035151;28;20268;-69
2022/11/26 02:22:13;;;;;;;10.15;4.45;;;;;;;4.32;100.00;96803.22;1035252;28;20612;-69
2022/11/26 02:23:07;;;;;;;11.02;3.92;;;;;;;4.30;100.00;96808.63;1032644;28;20019;-69
2022/11/26 02:24:04;;;;;;;10.00;4.30;;;;;;;4.30;100.00;96806.03;1031623;28;20070;-69
2022/11/26 02:25:19;;;;;;;8.63;4.38;;;;;;;4.32;100.00;96811.81;1032286;28;20835;-69
2022/11/26 02:25:52;;;;;;;6.95;3.90;;;;;;;4.30;100.00;96806.03;1038774;28;20906;-69
2022/11/26 02:26:28;;;;;;;9.00;3.97;;;;;;;4.28;100.00;96802.81;1039579;28;21128;-69
2022/11/26 02:27:13;;;;;;;11.35;5.03;;;;;;;4.29;100.00;96808.81;1039657;28;21016;-69
2022/11/26 02:28:08;;;;;;;9.95;4.70;;;;;;;4.21;100.00;96791.63;1035954;28;20776;-69
2022/11/26 02:29:09;;;;;;;9.68;4.60;;;;;;;4.23;100.00;96805.22;1037945;28;20264;-69
2022/11/26 02:30:04;;;;;;;11.63;4.45;;;;;;;4.26;100.00;96799.63;1038496;28;20761;-69
2022/11/26 02:30:40;;;;;;;12.77;4.15;;;;;;;4.23;100.00;96800.03;1034480;28;20280;-70
2022/11/26 02:31:12;;;;;;;16.65;5.43;;;;;;;4.25;100.00;96808.41;1031689;28;20261;-69
2022/11/26 02:32:08;;;;;;;9.20;4.78;;;;;;;4.25;100.00;96805.81;1034746;28;20269;-68
2022/11/26 02:32:50;;;;;;;9.85;4.30;;;;;;;4.24;100.00;96806.81;1029765;28;20269;-69
2022/11/26 02:33:27;;;;;;;10.48;4.70;;;;;;;4.29;100.00;96814.00;1024071;28;20434;-69
2022/11/26 02:34:33;;;;;;;7.05;4.22;;;;;;;4.28;100.00;96810.63;1026251;28;20869;-70
2022/11/26 02:35:11;;;;;;;7.68;3.70;;;;;;;4.28;100.00;96809.81;1029159;28;20263;-69
2022/11/26 02:36:06;;;;;;;7.97;3.95;;;;;;;4.17;100.00;96800.81;1028549;28;20262;-69
2022/11/26 02:36:57;;;;;;;6.47;3.85;;;;;;;4.28;100.00;96809.81;1026815;28;20655;-68
2022/11/26 02:37:40;;;;;;;14.60;4.88;;;;;;;4.27;100.00;96805.63;1033481;28;20310;-69
2022/11/26 02:38:14;;;;;;;10.50;4.75;;;;;;;4.27;100.00;96805.63;1027095;28;20305;-69
2022/11/26 02:38:45;;;;;;;13.38;5.18;;;;;;;4.27;100.00;96806.44;1022462;28;20310;-69
2022/11/26 02:39:17;;;;;;;10.45;4.50;;;;;;;4.25;100.00;96804.00;1024768;28;20270;-69
2022/11/26 02:39:47;;;;;;;8.32;4.47;;;;;;;4.24;100.00;96807.59;1023331;28;20015;-69
2022/11/26 02:40:19;;;;;;;7.88;4.57;;;;;;;4.19;100.00;96798.78;1029624;28;20262;-68
2022/11/26 02:40:50;;;;;;;9.63;5.05;;;;;;;4.24;100.00;96812.81;1034771;28;20029;-70